createdAt,value
2019-04-06T00:01:58.597Z,7.29
2019-04-06T00:04:24.791Z,7.22
2019-04-06T00:06:51.099Z,7.16
2019-04-06T00:09:17.414Z,7.21
2019-04-06T00:11:43.612Z,7.19
2019-04-06T00:14:09.942Z,7.18
2019-04-06T00:16:36.221Z,7.16
2019-04-06T00:19:02.513Z,7.15
2019-04-06T00:21:28.703Z,7.17
2019-04-06T00:23:54.808Z,7.24
2019-04-06T00:26:21.026Z,7.30
2019-04-06T00:28:47.245Z,7.32
2019-04-06T00:31:24.518Z,7.29
2019-04-06T00:33:50.855Z,7.30
2019-04-06T00:36:17.038Z,7.16
2019-04-06T00:38:43.227Z,7.21
2019-04-06T00:41:09.524Z,7.17
2019-04-06T00:43:35.804Z,7.24
2019-04-06T00:46:02.122Z,7.17
2019-04-06T00:48:28.245Z,7.27
2019-04-06T00:50:54.331Z,7.30
2019-04-06T00:53:20.603Z,7.27
2019-04-06T00:55:55.136Z,7.32
2019-04-06T00:58:14.723Z,7.33
2019-04-06T01:00:40.989Z,7.32
2019-04-06T01:03:07.141Z,7.36
2019-04-06T01:05:33.255Z,7.48
2019-04-06T01:07:59.384Z,7.41
2019-04-06T01:10:25.671Z,7.49
2019-04-06T01:12:51.978Z,7.40
2019-04-06T01:15:18.387Z,7.44
2019-04-06T01:17:44.788Z,7.41
2019-04-06T01:20:11.251Z,7.42
2019-04-06T01:22:37.433Z,7.45
2019-04-06T01:25:05.424Z,7.53
2019-04-06T01:27:31.516Z,7.53
2019-04-06T01:29:57.614Z,7.55
2019-04-06T01:32:23.849Z,7.55
2019-04-06T01:34:51.212Z,7.56
2019-04-06T01:37:17.394Z,7.60
2019-04-06T01:39:43.558Z,7.54
2019-04-06T01:42:09.788Z,7.58
2019-04-06T01:44:36.094Z,7.62
2019-04-06T01:47:02.473Z,7.60
2019-04-06T01:49:28.604Z,7.71
2019-04-06T01:51:54.695Z,7.62
2019-04-06T01:54:20.792Z,7.60
2019-04-06T01:56:46.892Z,7.59
2019-04-06T01:59:13.088Z,7.53
2019-04-06T02:01:41.170Z,7.47
2019-04-06T02:04:07.385Z,7.60
2019-04-06T02:06:33.579Z,7.59
2019-04-06T02:08:59.643Z,7.69
2019-04-06T02:11:25.850Z,7.73
2019-04-06T02:13:51.961Z,7.56
2019-04-06T02:16:18.072Z,7.72
2019-04-06T02:18:44.314Z,7.68
2019-04-06T02:21:10.466Z,7.80
2019-04-06T02:23:36.681Z,7.85
2019-04-06T02:26:03.955Z,7.83
2019-04-06T02:28:30.046Z,7.85
2019-04-06T02:31:13.177Z,7.73
2019-04-06T02:33:50.194Z,7.78
2019-04-06T02:36:18.178Z,7.59
2019-04-06T02:39:02.796Z,7.53
2019-04-06T02:41:36.045Z,7.59
2019-04-06T02:44:02.334Z,7.54
2019-04-06T02:46:30.972Z,7.54
2019-04-06T02:48:56.542Z,7.62
2019-04-06T02:51:23.726Z,7.56
2019-04-06T02:53:49.859Z,7.69
2019-04-06T02:56:15.919Z,7.69
2019-04-06T02:58:42.195Z,7.68
2019-04-06T03:01:08.293Z,7.81
2019-04-06T03:03:34.590Z,7.70
2019-04-06T03:06:00.867Z,7.70
2019-04-06T03:08:27.061Z,7.64
2019-04-06T03:10:53.403Z,7.68
2019-04-06T03:13:19.693Z,7.68
2019-04-06T03:15:46.027Z,7.67
2019-04-06T03:18:12.122Z,7.66
2019-04-06T03:20:38.390Z,7.60
2019-04-06T03:23:04.606Z,7.56
2019-04-06T03:25:30.715Z,7.61
2019-04-06T03:27:56.787Z,7.69
2019-04-06T03:30:23.014Z,7.72
2019-04-06T03:32:49.250Z,7.66
2019-04-06T03:35:15.451Z,7.60
2019-04-06T03:37:41.617Z,7.62
2019-04-06T03:40:08.044Z,7.56
2019-04-06T03:42:34.136Z,7.59
2019-04-06T03:45:00.227Z,7.68
2019-04-06T03:47:26.328Z,7.67
2019-04-06T03:49:52.528Z,7.73
2019-04-06T03:52:18.637Z,7.79
2019-04-06T03:54:44.712Z,7.77
2019-04-06T03:57:15.874Z,7.69
2019-04-06T03:59:39.133Z,7.63
2019-04-06T04:02:05.311Z,7.57
2019-04-06T04:04:31.439Z,7.54
2019-04-06T04:06:57.588Z,7.58
2019-04-06T04:09:23.836Z,7.59
2019-04-06T04:11:49.973Z,7.60
2019-04-06T04:14:16.051Z,7.67
2019-04-06T04:16:42.195Z,7.66
2019-04-06T04:19:09.460Z,7.62
2019-04-06T04:21:35.561Z,7.58
2019-04-06T04:24:01.941Z,7.64
2019-04-06T04:26:28.132Z,7.64
2019-04-06T04:28:54.266Z,7.58
2019-04-06T04:31:20.338Z,7.60
2019-04-06T04:33:46.435Z,7.70
2019-04-06T04:36:12.736Z,7.78
2019-04-06T04:38:38.916Z,7.81
2019-04-06T04:41:05.311Z,7.73
2019-04-06T04:43:31.430Z,7.66
2019-04-06T04:45:57.674Z,7.69
2019-04-06T04:48:23.972Z,7.56
2019-04-06T04:50:50.268Z,7.62
2019-04-06T04:53:16.440Z,7.63
2019-04-06T04:55:42.518Z,7.63
2019-04-06T04:58:08.647Z,7.68
2019-04-06T05:00:34.729Z,7.69
2019-04-06T05:03:01.149Z,7.60
2019-04-06T05:05:27.429Z,7.63
2019-04-06T05:07:53.525Z,7.57
2019-04-06T05:10:19.734Z,7.66
2019-04-06T05:12:45.938Z,7.64
2019-04-06T05:15:21.574Z,7.68
2019-04-06T05:17:47.686Z,7.66
2019-04-06T05:20:13.973Z,7.63
2019-04-06T05:22:40.331Z,7.67
2019-04-06T05:25:06.958Z,7.64
2019-04-06T05:27:33.341Z,7.76
2019-04-06T05:29:59.445Z,7.75
2019-04-06T05:32:25.668Z,7.87
2019-04-06T05:34:51.863Z,7.80
2019-04-06T05:37:17.972Z,7.82
2019-04-06T05:39:44.601Z,7.87
2019-04-06T05:42:10.759Z,7.94
2019-04-06T05:44:37.061Z,7.93
2019-04-06T05:47:03.310Z,8.01
2019-04-06T05:49:29.698Z,7.93
2019-04-06T05:51:56.282Z,8.01
2019-04-06T05:54:22.387Z,8.19
2019-04-06T05:56:48.670Z,8.25
2019-04-06T05:59:14.793Z,8.29
2019-04-06T06:01:41.060Z,8.39
2019-04-06T06:04:10.364Z,8.41
2019-04-06T06:06:35.427Z,8.44
2019-04-06T06:09:01.658Z,8.48
2019-04-06T06:11:28.550Z,8.53
2019-04-06T06:13:54.681Z,8.57
2019-04-06T06:16:20.764Z,8.61
2019-04-06T06:18:46.861Z,8.71
2019-04-06T06:21:14.235Z,8.65
2019-04-06T06:23:40.315Z,8.77
2019-04-06T06:26:08.370Z,8.80
2019-04-06T06:28:34.583Z,8.82
2019-04-06T06:31:00.774Z,8.78
2019-04-06T06:33:26.903Z,8.88
2019-04-06T06:35:53.114Z,8.90
2019-04-06T06:38:19.320Z,9.00
2019-04-06T06:40:45.676Z,9.05
2019-04-06T06:43:11.934Z,9.11
2019-04-06T06:45:38.205Z,9.13
2019-04-06T06:48:04.325Z,9.07
2019-04-06T06:50:30.532Z,9.07
2019-04-06T06:52:56.701Z,9.08
2019-04-06T06:55:23.025Z,9.08
2019-04-06T06:57:49.103Z,9.11
2019-04-06T07:00:15.407Z,9.19
2019-04-06T07:02:41.890Z,9.26
2019-04-06T07:05:08.195Z,9.31
2019-04-06T07:07:34.300Z,9.27
2019-04-06T07:10:05.935Z,9.36
2019-04-06T07:12:28.603Z,9.29
2019-04-06T07:14:54.862Z,9.32
2019-04-06T07:17:21.151Z,9.34
2019-04-06T07:19:47.278Z,9.34
2019-04-06T07:22:13.470Z,9.38
2019-04-06T07:24:39.557Z,9.38
2019-04-06T07:27:05.867Z,9.34
2019-04-06T07:29:32.250Z,9.41
2019-04-06T07:31:59.561Z,9.30
2019-04-06T07:34:25.669Z,9.44
2019-04-06T07:36:51.822Z,9.38
2019-04-06T07:39:17.923Z,9.50
2019-04-06T07:41:44.343Z,9.53
2019-04-06T07:44:10.515Z,9.65
2019-04-06T07:46:36.637Z,9.80
2019-04-06T07:49:09.128Z,9.81
2019-04-06T07:51:31.335Z,9.83
2019-04-06T07:53:57.469Z,9.79
2019-04-06T07:56:23.556Z,9.93
2019-04-06T07:58:50.763Z,9.88
2019-04-06T08:01:16.989Z,9.95
2019-04-06T08:03:43.156Z,10.19
2019-04-06T08:06:09.373Z,10.12
2019-04-06T08:08:35.570Z,9.98
2019-04-06T08:11:01.862Z,10.20
2019-04-06T08:13:28.206Z,10.54
2019-04-06T08:15:54.444Z,11.06
2019-04-06T08:18:20.620Z,11.09
2019-04-06T08:20:46.769Z,11.06
2019-04-06T08:23:13.041Z,11.31
2019-04-06T08:25:39.162Z,11.54
2019-04-06T08:28:05.588Z,11.51
2019-04-06T08:30:31.789Z,11.43
2019-04-06T08:32:57.993Z,11.39
2019-04-06T08:35:26.361Z,11.42
2019-04-06T08:37:52.516Z,11.68
2019-04-06T08:40:18.827Z,11.88
2019-04-06T08:42:45.317Z,11.79
2019-04-06T08:45:13.680Z,11.37
2019-04-06T08:47:39.666Z,11.16
2019-04-06T08:50:06.170Z,11.45
2019-04-06T08:52:32.272Z,11.82
2019-04-06T08:54:58.510Z,12.07
2019-04-06T08:57:24.736Z,12.30
2019-04-06T08:59:51.982Z,12.70
2019-04-06T09:02:18.811Z,12.50
2019-04-06T09:04:45.160Z,11.82
2019-04-06T09:07:11.533Z,11.99
2019-04-06T09:09:37.793Z,11.42
2019-04-06T09:12:04.039Z,11.79
2019-04-06T09:14:30.197Z,12.28
2019-04-06T09:16:56.307Z,12.59
2019-04-06T09:19:22.431Z,13.14
2019-04-06T09:21:48.681Z,12.72
2019-04-06T09:24:14.838Z,12.25
2019-04-06T09:26:41.165Z,12.47
2019-04-06T09:29:07.248Z,12.57
2019-04-06T09:31:34.333Z,12.92
2019-04-06T09:34:00.511Z,12.90
2019-04-06T09:36:26.728Z,12.99
2019-04-06T09:38:53.052Z,13.41
2019-04-06T09:41:19.226Z,13.65
2019-04-06T09:43:45.332Z,13.72
2019-04-06T09:46:17.366Z,14.10
2019-04-06T09:48:48.448Z,13.93
2019-04-06T09:51:34.872Z,13.73
2019-04-06T09:54:07.315Z,13.88
2019-04-06T09:56:48.053Z,14.17
2019-04-06T09:59:35.947Z,14.13
2019-04-06T10:02:19.370Z,14.18
2019-04-06T10:04:53.533Z,14.41
2019-04-06T10:07:36.678Z,14.82
2019-04-06T10:10:08.137Z,14.32
2019-04-06T10:12:36.153Z,14.02
2019-04-06T10:15:15.948Z,14.35
2019-04-06T10:17:45.811Z,14.64
2019-04-06T10:20:23.481Z,14.71
2019-04-06T10:22:51.495Z,14.53
2019-04-06T10:25:36.424Z,14.30
2019-04-06T10:28:07.563Z,13.75
2019-04-06T10:30:35.800Z,13.89
2019-04-06T10:33:19.123Z,13.77
2019-04-06T10:35:53.148Z,13.44
2019-04-06T10:38:21.438Z,13.39
2019-04-06T10:40:49.495Z,13.39
2019-04-06T10:43:34.149Z,13.77
2019-04-06T10:46:08.344Z,14.40
2019-04-06T10:48:53.205Z,14.38
2019-04-06T10:51:41.175Z,14.53
2019-04-06T10:54:09.577Z,14.56
2019-04-06T10:56:37.621Z,13.68
2019-04-06T10:59:17.777Z,13.68
2019-04-06T11:01:54.668Z,14.19
2019-04-06T11:04:32.831Z,14.89
2019-04-06T11:07:01.135Z,15.19
2019-04-06T11:09:31.984Z,15.17
2019-04-06T11:12:05.839Z,15.36
2019-04-06T11:14:39.857Z,15.75
2019-04-06T11:17:24.364Z,15.49
2019-04-06T11:19:55.329Z,15.83
2019-04-06T11:22:26.347Z,15.77
2019-04-06T11:24:57.606Z,15.82
2019-04-06T11:27:42.445Z,16.15
2019-04-06T11:30:17.393Z,16.08
2019-04-06T11:32:55.160Z,15.79
2019-04-06T11:35:32.425Z,15.50
2019-04-06T11:38:17.069Z,15.45
2019-04-06T11:40:57.600Z,15.82
2019-04-06T11:43:34.593Z,16.74
2019-04-06T11:46:06.190Z,16.21
2019-04-06T11:48:46.282Z,17.06
2019-04-06T11:51:14.413Z,17.01
2019-04-06T11:53:54.726Z,17.19
2019-04-06T11:56:37.773Z,17.11
2019-04-06T11:59:06.001Z,16.84
2019-04-06T12:01:50.685Z,17.52
2019-04-06T12:04:21.757Z,17.45
2019-04-06T12:06:49.856Z,17.88
2019-04-06T12:09:18.186Z,17.66
2019-04-06T12:11:52.448Z,17.96
2019-04-06T12:14:23.222Z,17.68
2019-04-06T12:17:00.015Z,18.33
2019-04-06T12:19:40.066Z,17.93
2019-04-06T12:22:23.739Z,18.15
2019-04-06T12:25:08.477Z,17.74
2019-04-06T12:27:51.423Z,18.32
2019-04-06T12:30:22.560Z,18.44
2019-04-06T12:32:50.810Z,18.79
2019-04-06T12:35:21.566Z,18.80
2019-04-06T12:37:55.578Z,19.42
2019-04-06T12:40:26.749Z,18.73
2019-04-06T12:42:54.911Z,18.58
2019-04-06T12:45:23.045Z,19.09
2019-04-06T12:47:57.348Z,19.20
2019-04-06T12:50:25.524Z,19.32
2019-04-06T12:53:10.199Z,19.38
2019-04-06T12:55:38.311Z,19.25
2019-04-06T12:58:23.713Z,19.55
2019-04-06T13:00:53.646Z,20.34
2019-04-06T13:03:27.913Z,19.57
2019-04-06T13:05:56.211Z,20.27
2019-04-06T13:08:24.277Z,20.24
2019-04-06T13:10:58.291Z,20.42
2019-04-06T13:13:38.700Z,19.65
2019-04-06T13:16:12.606Z,19.96
2019-04-06T13:18:57.527Z,20.53
2019-04-06T13:21:43.876Z,20.94
2019-04-06T13:24:15.187Z,21.29
2019-04-06T13:26:43.248Z,20.71
2019-04-06T13:29:27.959Z,20.65
2019-04-06T13:31:58.677Z,19.98
2019-04-06T13:34:32.733Z,20.05
2019-04-06T13:37:12.824Z,20.22
2019-04-06T13:39:43.630Z,20.00
2019-04-06T13:42:28.178Z,19.85
2019-04-06T13:44:56.311Z,19.79
2019-04-06T13:47:27.103Z,20.18
2019-04-06T13:50:10.140Z,20.22
2019-04-06T13:52:54.805Z,20.28
2019-04-06T13:55:28.966Z,20.61
2019-04-06T13:58:03.110Z,20.26
2019-04-06T14:00:43.257Z,20.12
2019-04-06T14:03:11.349Z,20.22
2019-04-06T14:05:45.363Z,20.21
2019-04-06T14:08:30.209Z,20.58
2019-04-06T14:11:04.289Z,20.29
2019-04-06T14:13:32.465Z,20.08
2019-04-06T14:16:03.769Z,19.70
2019-04-06T14:18:32.117Z,19.56
2019-04-06T14:21:09.444Z,19.87
2019-04-06T14:23:43.245Z,19.72
2019-04-06T14:26:29.738Z,20.00
2019-04-06T14:29:07.368Z,20.26
2019-04-06T14:31:35.509Z,20.33
2019-04-06T14:34:06.402Z,20.07
2019-04-06T14:36:51.653Z,20.50
2019-04-06T14:39:25.603Z,19.78
2019-04-06T14:41:54.050Z,19.89
2019-04-06T14:44:22.240Z,20.12
2019-04-06T14:47:06.828Z,19.91
2019-04-06T14:49:44.185Z,20.04
2019-04-06T14:52:15.689Z,20.30
2019-04-06T14:54:46.965Z,20.30
2019-04-06T14:57:15.692Z,20.21
2019-04-06T14:59:46.777Z,20.33
2019-04-06T15:02:27.274Z,20.26
2019-04-06T15:05:04.405Z,19.80
2019-04-06T15:07:32.520Z,20.11
2019-04-06T15:10:06.589Z,19.69
2019-04-06T15:12:34.820Z,20.25
2019-04-06T15:15:06.288Z,19.99
2019-04-06T15:17:35.740Z,20.17
2019-04-06T15:20:21.635Z,20.48
2019-04-06T15:23:02.293Z,20.86
2019-04-06T15:25:30.351Z,20.44
2019-04-06T15:28:04.294Z,19.80
2019-04-06T15:30:32.635Z,20.10
2019-04-06T15:33:18.947Z,20.35
2019-04-06T15:36:06.290Z,20.48
2019-04-06T15:38:34.341Z,20.73
2019-04-06T15:41:02.855Z,20.76
2019-04-06T15:43:49.056Z,20.55
2019-04-06T15:46:35.741Z,20.42
2019-04-06T15:49:10.129Z,20.10
2019-04-06T15:51:44.088Z,20.22
2019-04-06T15:54:27.454Z,20.10
2019-04-06T15:56:56.084Z,20.28
2019-04-06T15:59:39.686Z,20.34
2019-04-06T16:02:07.839Z,20.49
2019-04-06T16:04:36.082Z,20.42
2019-04-06T16:07:07.292Z,20.66
2019-04-06T16:09:54.158Z,20.59
2019-04-06T16:12:39.073Z,20.37
2019-04-06T16:15:22.712Z,20.49
2019-04-06T16:17:57.190Z,20.71
2019-04-06T16:20:44.096Z,20.77
2019-04-06T16:23:14.897Z,20.67
2019-04-06T16:26:01.075Z,20.78
2019-04-06T16:28:47.719Z,20.78
2019-04-06T16:31:19.121Z,20.82
2019-04-06T16:33:47.259Z,20.73
2019-04-06T16:36:34.950Z,20.02
2019-04-06T16:39:09.108Z,19.69
2019-04-06T16:41:37.286Z,19.61
2019-04-06T16:44:05.965Z,19.75
2019-04-06T16:46:36.968Z,19.76
2019-04-06T16:49:11.221Z,19.31
2019-04-06T16:51:56.054Z,19.24
2019-04-06T16:54:42.430Z,19.07
2019-04-06T16:57:10.526Z,18.69
2019-04-06T16:59:38.897Z,18.63
2019-04-06T17:02:21.654Z,18.64
2019-04-06T17:04:39.993Z,18.49
2019-04-06T17:07:08.619Z,18.37
2019-04-06T17:09:43.248Z,18.27
2019-04-06T17:12:14.316Z,18.39
2019-04-06T17:14:45.026Z,18.33
2019-04-06T17:17:13.171Z,18.12
2019-04-06T17:19:50.743Z,18.16
2019-04-06T17:22:24.802Z,18.11
2019-04-06T17:25:02.038Z,18.14
2019-04-06T17:27:30.254Z,18.05
2019-04-06T17:30:07.379Z,17.87
2019-04-06T17:32:37.872Z,17.81
2019-04-06T17:35:07.428Z,17.73
2019-04-06T17:37:52.335Z,17.78
2019-04-06T17:40:23.419Z,17.74
2019-04-06T17:42:51.598Z,17.57
2019-04-06T17:45:36.209Z,17.58
2019-04-06T17:48:04.516Z,17.55
2019-04-06T17:50:32.639Z,17.49
2019-04-06T17:53:03.736Z,17.28
2019-04-06T17:55:32.266Z,17.24
2019-04-06T17:58:06.241Z,17.09
2019-04-06T18:00:40.710Z,17.22
2019-04-06T18:03:09.069Z,17.13
2019-04-06T18:05:52.147Z,17.10
2019-04-06T18:08:20.385Z,17.16
2019-04-06T18:10:58.242Z,17.08
2019-04-06T18:13:43.500Z,16.87
2019-04-06T18:16:09.990Z,16.82
2019-04-06T18:18:36.316Z,16.78
2019-04-06T18:21:03.187Z,16.78
2019-04-06T18:23:30.110Z,16.76
2019-04-06T18:25:56.734Z,16.67
2019-04-06T18:28:22.965Z,16.62
2019-04-06T18:30:51.274Z,16.63
2019-04-06T18:33:19.370Z,16.40
2019-04-06T18:35:45.614Z,16.39
2019-04-06T18:38:25.674Z,16.32
2019-04-06T18:40:52.545Z,16.36
2019-04-06T18:45:41.480Z,16.15
2019-04-06T18:48:07.868Z,16.03
2019-04-06T18:50:38.329Z,15.92
2019-04-06T18:53:02.485Z,15.81
2019-04-06T18:55:28.947Z,15.73
2019-04-06T18:57:57.064Z,15.82
2019-04-06T19:00:24.218Z,15.67
2019-04-06T19:02:50.509Z,15.64
2019-04-06T19:05:17.291Z,15.61
2019-04-06T19:07:43.676Z,15.65
2019-04-06T19:10:10.730Z,15.66
2019-04-06T19:12:36.950Z,15.50
2019-04-06T19:15:05.921Z,15.41
2019-04-06T19:17:32.257Z,15.32
2019-04-06T19:19:58.512Z,15.15
2019-04-06T19:22:25.151Z,15.15
2019-04-06T19:24:51.467Z,15.03
2019-04-06T19:27:18.271Z,14.99
2019-04-06T19:29:44.589Z,15.02
2019-04-06T19:32:10.759Z,14.96
2019-04-06T19:34:37.204Z,14.86
2019-04-06T19:37:03.861Z,14.78
2019-04-06T19:39:30.734Z,14.69
2019-04-06T19:41:57.414Z,14.52
2019-04-06T19:44:23.714Z,14.39
2019-04-06T19:46:50.425Z,14.40
2019-04-06T19:49:16.706Z,14.37
2019-04-06T19:51:43.093Z,14.32
2019-04-06T19:54:09.553Z,14.22
2019-04-06T19:56:35.868Z,14.10
2019-04-06T19:59:02.956Z,14.02
2019-04-06T20:01:29.681Z,14.03
2019-04-06T20:03:55.905Z,14.03
2019-04-06T20:06:22.214Z,13.99
2019-04-06T20:08:48.468Z,14.01
2019-04-06T20:11:14.627Z,13.97
2019-04-06T20:13:41.066Z,13.95
2019-04-06T20:16:07.458Z,13.89
2019-04-06T20:18:33.595Z,13.91
2019-04-06T20:21:00.871Z,13.88
2019-04-06T20:23:27.389Z,13.85
2019-04-06T20:25:53.754Z,13.91
2019-04-06T20:28:20.053Z,13.90
2019-04-06T20:30:47.735Z,14.05
2019-04-06T20:33:14.009Z,14.08
2019-04-06T20:35:40.572Z,13.99
2019-04-06T20:38:07.460Z,14.07
2019-04-06T20:40:33.733Z,13.97
2019-04-06T20:43:00.125Z,13.81
2019-04-06T20:45:26.822Z,13.84
2019-04-06T20:47:53.013Z,13.82
2019-04-06T20:50:19.160Z,13.73
2019-04-06T20:52:45.315Z,13.89
2019-04-06T20:55:11.623Z,13.75
2019-04-06T20:57:38.343Z,13.46
2019-04-06T21:00:07.916Z,13.19
2019-04-06T21:02:36.195Z,13.05
2019-04-06T21:05:05.552Z,13.31
2019-04-06T21:07:32.404Z,13.00
2019-04-06T21:09:58.716Z,12.72
2019-04-06T21:12:26.293Z,12.54
2019-04-06T21:14:53.700Z,12.54
2019-04-06T21:17:21.818Z,12.41
2019-04-06T21:19:48.069Z,12.30
2019-04-06T21:22:14.410Z,12.17
2019-04-06T21:24:40.723Z,11.85
2019-04-06T21:27:07.660Z,11.85
2019-04-06T21:29:34.551Z,11.84
2019-04-06T21:32:00.955Z,11.84
2019-04-06T21:34:27.265Z,11.81
2019-04-06T21:36:53.789Z,11.79
2019-04-06T21:39:20.194Z,11.84
2019-04-06T21:41:46.393Z,11.84
2019-04-06T21:44:12.853Z,11.79
2019-04-06T21:46:39.337Z,11.77
2019-04-06T21:49:06.130Z,11.50
2019-04-06T21:51:32.525Z,11.33
2019-04-06T21:53:58.766Z,11.34
2019-04-06T21:56:24.972Z,11.17
2019-04-06T21:58:51.688Z,11.18
2019-04-06T22:01:18.627Z,11.00
2019-04-06T22:03:47.342Z,10.94
2019-04-06T22:06:13.922Z,10.97
2019-04-06T22:08:40.729Z,11.02
2019-04-06T22:11:07.237Z,10.78
2019-04-06T22:13:33.560Z,10.49
2019-04-06T22:15:59.907Z,10.57
2019-04-06T22:18:26.084Z,10.57
2019-04-06T22:20:52.511Z,10.61
2019-04-06T22:23:18.728Z,10.71
2019-04-06T22:25:44.958Z,10.86
2019-04-06T22:28:11.229Z,10.67
2019-04-06T22:30:38.348Z,10.56
2019-04-06T22:33:04.899Z,10.49
2019-04-06T22:35:31.218Z,10.56
2019-04-06T22:37:57.488Z,10.67
2019-04-06T22:40:23.815Z,10.50
2019-04-06T22:42:50.373Z,10.45
2019-04-06T22:45:18.608Z,10.47
2019-04-06T22:47:45.190Z,9.92
2019-04-06T22:50:11.957Z,10.12
2019-04-06T22:52:38.390Z,10.15
2019-04-06T22:55:07.451Z,10.23
2019-04-06T22:57:33.900Z,10.36
2019-04-06T23:00:00.825Z,10.51
2019-04-06T23:02:29.186Z,10.35
2019-04-06T23:04:57.738Z,10.37
2019-04-06T23:07:25.910Z,10.30
2019-04-06T23:09:52.139Z,10.27
2019-04-06T23:12:18.484Z,10.23
2019-04-06T23:14:44.609Z,10.22
2019-04-06T23:17:11.205Z,10.02
2019-04-06T23:19:37.622Z,10.16
2019-04-06T23:22:07.081Z,10.09
2019-04-06T23:24:33.333Z,10.10
2019-04-06T23:26:59.588Z,10.06
2019-04-06T23:29:25.734Z,10.08
2019-04-06T23:31:52.146Z,10.00
2019-04-06T23:34:19.208Z,10.02
2019-04-06T23:36:46.330Z,9.98
2019-04-06T23:39:12.656Z,9.79
2019-04-06T23:41:40.896Z,9.77
2019-04-06T23:44:07.888Z,9.56
2019-04-06T23:46:35.007Z,9.31
2019-04-06T23:49:02.612Z,9.53
2019-04-06T23:51:29.312Z,9.31
2019-04-06T23:53:56.202Z,9.23
2019-04-06T23:56:22.627Z,9.19
2019-04-06T23:58:48.755Z,9.14
